首页
METAR-TAF:

METAR-TAF

机场 :

希尔克内斯, 挪威

纬度: 69-44N, 经度: 029-54E, 海拔: 9米

当前天气观测

该预报发布于34分钟前的11:50 UTC
风速6节,风向
温度 -21°C
湿度 84%
气压 1014 hPa
能见度10公里或以上
少量云层高于100英尺

METAR: ENKR 271150Z 17006KT 9999 FEW001 M21/M23 Q1014 RMK WIND 731FT 25009KT

时间: 13:24 (12:24 UTC)

预报

该预报发布于1小时和24分钟前的11:00 UTC
预报有效从27日的 12点(UTC)到 27日的 21点(UTC)
风速8节,风向
能见度10公里或以上
少量云层高于1200英尺
几率 30% :
短暂存在
从 27日的 12点(UTC)到 27日的 21点(UTC)
能見度: 0500
层高于200英尺
冻雾

TAF: ENKR 271100Z 2712/2721 18008KT 9999 FEW012 PROB30 TEMPO 2712/2721 0500 FZFG VV002

超过4000个机场的气象观测和天气预报(METAR&TAF报告)。

可查询的气象台以黄色和红色小点在地图上表示。

将鼠标移到小点上方,可查看气象台名称。

然后点击查看天气观测和预报。

如需切换地图:点击带黑十字的绿色按钮放大地图;点击带横线的绿色按钮缩小地图;或者点击绿色箭头查看邻近地区的地图。


METAR-TAF: